createdAt,value
2018-06-19T00:01:55.767Z,14.60
2018-06-19T00:04:22.993Z,14.60
2018-06-19T00:06:50.273Z,14.60
2018-06-19T00:09:17.508Z,14.60
2018-06-19T00:11:44.751Z,14.70
2018-06-19T00:14:11.965Z,14.70
2018-06-19T00:16:39.358Z,14.70
2018-06-19T00:19:07.217Z,14.70
2018-06-19T00:21:51.909Z,14.70
2018-06-19T00:24:19.102Z,14.70
2018-06-19T00:26:46.343Z,14.80
2018-06-19T00:29:13.537Z,14.70
2018-06-19T00:31:40.769Z,14.70
2018-06-19T00:34:07.965Z,14.70
2018-06-19T00:36:35.164Z,14.70
2018-06-19T00:39:02.441Z,14.60
2018-06-19T00:41:29.633Z,14.60
2018-06-19T00:43:56.825Z,14.60
2018-06-19T00:46:26.172Z,14.60
2018-06-19T00:48:53.362Z,14.70
2018-06-19T00:51:20.573Z,14.70
2018-06-19T00:53:47.769Z,14.80
2018-06-19T00:56:26.522Z,14.90
2018-06-19T00:58:53.857Z,15.00
2018-06-19T01:01:21.049Z,15.00
2018-06-19T01:03:48.236Z,15.10
2018-06-19T01:06:15.430Z,15.10
2018-06-19T01:08:42.625Z,15.10
2018-06-19T01:11:09.829Z,15.00
2018-06-19T01:13:37.029Z,15.10
2018-06-19T01:16:04.899Z,15.20
2018-06-19T01:18:32.097Z,15.20
2018-06-19T01:20:59.292Z,15.10
2018-06-19T01:23:26.487Z,15.10
2018-06-19T01:25:53.693Z,15.10
2018-06-19T01:28:20.897Z,15.10
2018-06-19T01:30:48.084Z,15.00
2018-06-19T01:33:15.277Z,15.00
2018-06-19T01:35:42.501Z,15.00
2018-06-19T01:38:09.741Z,15.00
2018-06-19T01:40:36.905Z,15.00
2018-06-19T01:43:04.297Z,15.00
2018-06-19T01:45:31.488Z,15.00
2018-06-19T01:47:58.685Z,15.20
2018-06-19T01:50:25.873Z,15.20
2018-06-19T01:52:53.065Z,15.20
2018-06-19T01:55:20.341Z,15.10
2018-06-19T01:57:47.537Z,15.10
2018-06-19T02:00:14.757Z,15.10
2018-06-19T02:02:41.973Z,15.10
2018-06-19T02:05:09.204Z,15.00
2018-06-19T02:07:36.424Z,15.00
2018-06-19T02:10:03.675Z,14.90
2018-06-19T02:12:30.916Z,14.90
2018-06-19T02:14:58.128Z,14.90
2018-06-19T02:17:25.341Z,14.90
2018-06-19T02:19:52.568Z,14.90
2018-06-19T02:22:19.785Z,14.90
2018-06-19T02:24:47.022Z,15.00
2018-06-19T02:27:14.261Z,15.00
2018-06-19T02:29:41.480Z,15.00
2018-06-19T02:32:08.697Z,15.00
2018-06-19T02:34:35.920Z,15.10
2018-06-19T02:37:03.150Z,15.00
2018-06-19T02:39:30.380Z,15.10
2018-06-19T02:41:57.601Z,15.10
2018-06-19T02:44:24.825Z,15.20
2018-06-19T02:46:52.060Z,15.30
2018-06-19T02:49:19.273Z,15.40
2018-06-19T02:54:13.704Z,15.50
2018-06-19T02:56:40.973Z,15.50
2018-06-19T02:59:08.289Z,15.60
2018-06-19T03:01:35.626Z,15.60
2018-06-19T03:04:02.860Z,15.60
2018-06-19T03:06:30.093Z,15.60
2018-06-19T03:08:57.311Z,15.60
2018-06-19T03:13:51.749Z,15.50
2018-06-19T03:16:18.984Z,15.50
2018-06-19T03:18:46.220Z,15.50
2018-06-19T03:21:13.433Z,15.50
2018-06-19T03:23:40.641Z,15.50
2018-06-19T03:26:07.856Z,15.50
2018-06-19T03:28:35.066Z,15.50
2018-06-19T03:31:02.313Z,15.50
2018-06-19T03:33:29.554Z,15.50
2018-06-19T03:35:56.783Z,15.50
2018-06-19T03:38:24.042Z,15.40
2018-06-19T03:40:53.441Z,15.30
2018-06-19T03:43:23.045Z,15.20
2018-06-19T03:45:50.260Z,15.20
2018-06-19T03:48:17.480Z,15.20
2018-06-19T03:50:44.693Z,15.20
2018-06-19T03:53:11.915Z,15.20
2018-06-19T03:55:39.238Z,15.20
2018-06-19T03:58:06.452Z,15.20
2018-06-19T04:00:33.825Z,15.30
2018-06-19T04:03:01.036Z,15.30
2018-06-19T04:05:28.278Z,15.40
2018-06-19T04:07:55.488Z,15.50
2018-06-19T04:10:22.781Z,15.50
2018-06-19T04:12:49.961Z,15.50
2018-06-19T04:15:17.176Z,15.50
2018-06-19T04:17:44.414Z,15.50
2018-06-19T04:20:11.661Z,15.60
2018-06-19T04:22:38.887Z,15.60
2018-06-19T04:25:06.120Z,15.70
2018-06-19T04:27:33.401Z,15.70
2018-06-19T04:30:00.625Z,15.70
2018-06-19T04:32:27.837Z,15.80
2018-06-19T04:34:55.049Z,15.80
2018-06-19T04:37:22.281Z,15.80
2018-06-19T04:39:49.493Z,15.90
2018-06-19T04:42:16.709Z,16.00
2018-06-19T04:44:43.923Z,16.00
2018-06-19T04:47:11.180Z,16.10
2018-06-19T04:49:38.398Z,16.10
2018-06-19T04:52:05.640Z,16.10
2018-06-19T04:54:33.025Z,16.10
2018-06-19T04:57:00.246Z,16.00
2018-06-19T04:59:27.457Z,16.00
2018-06-19T05:01:54.672Z,16.00
2018-06-19T05:04:22.505Z,16.00
2018-06-19T05:06:49.725Z,16.10
2018-06-19T05:09:16.938Z,16.10
2018-06-19T05:11:45.071Z,16.20
2018-06-19T05:14:12.288Z,16.30
2018-06-19T05:16:40.365Z,16.40
2018-06-19T05:19:07.592Z,16.50
2018-06-19T05:21:34.809Z,16.60
2018-06-19T05:24:02.080Z,16.60
2018-06-19T05:26:29.286Z,16.70
2018-06-19T05:28:56.990Z,16.60
2018-06-19T05:31:24.201Z,16.60
2018-06-19T05:33:51.424Z,16.50
2018-06-19T05:36:18.657Z,16.50
2018-06-19T05:38:45.869Z,16.40
2018-06-19T05:41:13.088Z,16.40
2018-06-19T05:43:40.315Z,16.50
2018-06-19T05:46:07.533Z,16.50
2018-06-19T05:48:34.769Z,16.70
2018-06-19T05:51:02.061Z,17.00
2018-06-19T05:53:29.286Z,17.30
2018-06-19T05:55:56.505Z,17.60
2018-06-19T05:58:23.729Z,17.90
2018-06-19T06:00:50.952Z,18.00
2018-06-19T06:03:18.180Z,18.20
2018-06-19T06:05:45.463Z,18.30
2018-06-19T06:08:12.637Z,18.40
2018-06-19T06:10:40.031Z,18.50
2018-06-19T06:13:07.136Z,18.60
2018-06-19T06:15:34.415Z,18.70
2018-06-19T06:18:01.600Z,18.90
2018-06-19T06:22:56.049Z,19.30
2018-06-19T06:25:23.269Z,19.50
2018-06-19T06:27:50.497Z,19.60
2018-06-19T06:30:17.741Z,20.00
2018-06-19T06:32:45.145Z,20.20
2018-06-19T06:35:12.357Z,20.30
2018-06-19T06:37:39.568Z,20.30
2018-06-19T06:40:06.798Z,20.30
2018-06-19T06:42:34.016Z,20.30
2018-06-19T06:45:01.246Z,20.20
2018-06-19T06:47:28.461Z,20.10
2018-06-19T06:49:55.686Z,20.10
2018-06-19T06:52:22.905Z,20.30
2018-06-19T06:54:50.124Z,20.40
2018-06-19T06:57:17.376Z,20.40
2018-06-19T06:59:44.602Z,20.20
2018-06-19T07:02:11.827Z,20.10
2018-06-19T07:04:39.049Z,20.00
2018-06-19T07:07:06.284Z,20.80
2018-06-19T07:09:33.514Z,21.50
2018-06-19T07:12:00.726Z,21.80
2018-06-19T07:14:27.943Z,21.70
2018-06-19T07:16:55.168Z,22.40
2018-06-19T07:19:22.457Z,23.00
2018-06-19T07:21:49.617Z,23.40
2018-06-19T07:24:16.840Z,24.50
2018-06-19T07:26:44.059Z,25.30
2018-06-19T07:29:11.292Z,26.00
2018-06-19T07:31:38.505Z,26.60
2018-06-19T07:34:05.850Z,27.40
2018-06-19T07:36:33.081Z,27.30
2018-06-19T07:39:00.303Z,27.20
2018-06-19T07:41:27.533Z,26.00
2018-06-19T07:43:54.821Z,25.10
2018-06-19T07:46:22.046Z,24.00
2018-06-19T07:48:49.263Z,23.10
2018-06-19T07:51:16.486Z,23.30
2018-06-19T07:53:43.698Z,24.90
2018-06-19T07:56:10.924Z,26.00
2018-06-19T07:58:38.285Z,27.50
2018-06-19T08:01:05.564Z,27.70
2018-06-19T08:03:32.785Z,27.00
2018-06-19T08:06:00.001Z,26.50
2018-06-19T08:08:27.231Z,25.60
2018-06-19T08:10:54.496Z,24.60
2018-06-19T08:13:21.750Z,24.10
2018-06-19T08:15:48.964Z,24.00
2018-06-19T08:18:16.177Z,23.90
2018-06-19T08:20:43.392Z,24.30
2018-06-19T08:23:10.613Z,24.00
2018-06-19T08:25:37.843Z,23.90
2018-06-19T08:28:05.061Z,23.30
2018-06-19T08:30:32.267Z,23.10
2018-06-19T08:32:59.489Z,22.60
2018-06-19T08:35:26.702Z,22.30
2018-06-19T08:37:53.929Z,23.90
2018-06-19T08:40:21.145Z,26.00
2018-06-19T08:42:48.416Z,28.20
2018-06-19T08:45:15.644Z,29.80
2018-06-19T08:47:42.853Z,29.10
2018-06-19T08:50:10.062Z,29.80
2018-06-19T08:52:37.286Z,29.60
2018-06-19T08:55:04.661Z,27.70
2018-06-19T08:57:31.885Z,26.20
2018-06-19T08:59:59.100Z,24.80
2018-06-19T09:02:26.359Z,23.80
2018-06-19T09:04:53.653Z,23.20
2018-06-19T09:07:22.037Z,22.60
2018-06-19T09:09:49.261Z,23.20
2018-06-19T09:12:16.491Z,25.20
2018-06-19T09:14:43.730Z,26.60
2018-06-19T09:17:10.956Z,27.60
2018-06-19T09:19:38.416Z,26.60
2018-06-19T09:22:05.645Z,25.80
2018-06-19T09:24:32.899Z,25.10
2018-06-19T09:27:00.105Z,24.30
2018-06-19T09:29:27.341Z,23.60
2018-06-19T09:31:54.561Z,23.40
2018-06-19T09:34:21.797Z,23.10
2018-06-19T09:36:49.060Z,23.00
2018-06-19T09:39:16.297Z,23.20
2018-06-19T09:41:44.527Z,25.40
2018-06-19T09:44:11.896Z,27.60
2018-06-19T09:46:39.360Z,27.90
2018-06-19T09:49:06.593Z,27.70
2018-06-19T09:51:33.861Z,27.80
2018-06-19T09:54:01.370Z,27.90
2018-06-19T09:56:28.400Z,27.10
2018-06-19T09:58:55.879Z,26.00
2018-06-19T10:01:23.124Z,25.30
2018-06-19T10:03:50.353Z,25.10
2018-06-19T10:06:17.605Z,24.80
2018-06-19T10:08:44.877Z,24.80
2018-06-19T10:11:12.141Z,24.60
2018-06-19T10:13:39.377Z,24.60
2018-06-19T10:16:06.751Z,24.90
2018-06-19T10:18:33.989Z,24.70
2018-06-19T10:21:01.196Z,25.60
2018-06-19T10:23:28.426Z,25.60
2018-06-19T10:25:55.649Z,26.20
2018-06-19T10:28:22.861Z,27.20
2018-06-19T10:30:50.107Z,26.80
2018-06-19T10:33:17.360Z,27.80
2018-06-19T10:35:44.597Z,28.50
2018-06-19T10:38:11.829Z,28.40
2018-06-19T10:40:39.062Z,29.70
2018-06-19T10:43:06.303Z,30.90
2018-06-19T10:45:33.572Z,30.70
2018-06-19T10:48:00.785Z,29.70
2018-06-19T10:50:28.142Z,28.90
2018-06-19T10:52:55.381Z,28.00
2018-06-19T10:55:22.618Z,27.00
2018-06-19T10:57:49.861Z,26.20
2018-06-19T11:00:17.205Z,26.10
2018-06-19T11:02:44.418Z,25.90
2018-06-19T11:05:11.664Z,25.40
2018-06-19T11:07:38.861Z,26.20
2018-06-19T11:10:06.097Z,28.10
2018-06-19T11:12:33.344Z,30.10
2018-06-19T11:15:00.589Z,30.70
2018-06-19T11:17:27.805Z,31.40
2018-06-19T11:19:55.051Z,31.10
2018-06-19T11:22:22.267Z,30.80
2018-06-19T11:24:49.561Z,31.00
2018-06-19T11:27:16.779Z,31.60
2018-06-19T11:29:44.278Z,31.80
2018-06-19T11:32:11.741Z,32.10
2018-06-19T11:34:38.974Z,31.10
2018-06-19T11:37:06.577Z,29.90
2018-06-19T11:39:33.812Z,30.00
2018-06-19T11:42:01.033Z,29.30
2018-06-19T11:44:28.269Z,28.50
2018-06-19T11:46:55.514Z,28.40
2018-06-19T11:49:22.752Z,28.00
2018-06-19T11:51:49.972Z,28.30
2018-06-19T11:54:17.298Z,28.80
2018-06-19T11:56:44.570Z,28.70
2018-06-19T11:59:11.785Z,27.70
2018-06-19T12:01:39.017Z,28.30
2018-06-19T12:04:06.249Z,28.20
2018-06-19T12:06:33.485Z,27.70
2018-06-19T12:09:00.713Z,28.90
2018-06-19T12:11:28.009Z,29.70
2018-06-19T12:13:55.232Z,30.00
2018-06-19T12:16:22.486Z,30.60
2018-06-19T12:18:49.733Z,31.30
2018-06-19T12:21:17.005Z,30.10
2018-06-19T12:23:44.519Z,29.50
2018-06-19T12:26:11.793Z,29.80
2018-06-19T12:28:39.039Z,30.40
2018-06-19T12:31:06.504Z,31.00
2018-06-19T12:33:33.725Z,31.00
2018-06-19T12:36:00.976Z,31.40
2018-06-19T12:38:28.192Z,31.90
2018-06-19T12:40:55.413Z,31.80
2018-06-19T12:43:22.632Z,31.60
2018-06-19T12:45:49.855Z,31.50
2018-06-19T12:48:17.080Z,30.40
2018-06-19T12:51:56.313Z,29.00
2018-06-19T12:55:41.613Z,27.80
2018-06-19T12:58:08.876Z,26.70
2018-06-19T13:00:36.088Z,26.40
2018-06-19T13:03:14.944Z,26.40
2018-06-19T13:05:53.817Z,27.30
2018-06-19T13:08:21.041Z,28.90
2018-06-19T13:10:48.284Z,29.50
2018-06-19T13:13:29.427Z,30.10
2018-06-19T13:15:56.899Z,30.60
2018-06-19T13:18:36.960Z,31.40
2018-06-19T13:21:04.212Z,31.80
2018-06-19T13:23:31.811Z,32.10
2018-06-19T13:25:59.070Z,33.20
2018-06-19T13:28:38.312Z,33.20
2018-06-19T13:31:17.092Z,31.70
2018-06-19T13:33:44.334Z,30.50
2018-06-19T13:36:11.544Z,29.60
2018-06-19T13:38:39.058Z,29.70
2018-06-19T13:41:19.350Z,29.60
2018-06-19T13:43:59.712Z,30.00
2018-06-19T13:48:54.777Z,31.20
2018-06-19T13:51:21.996Z,32.00
2018-06-19T13:53:49.856Z,32.40
2018-06-19T13:57:39.419Z,33.20
2018-06-19T14:00:08.874Z,32.70
2018-06-19T14:02:36.120Z,31.50
2018-06-19T14:05:04.093Z,31.30
2018-06-19T14:07:32.680Z,30.50
2018-06-19T14:10:11.562Z,29.60
2018-06-19T14:12:57.758Z,28.80
2018-06-19T14:15:25.755Z,28.00
2018-06-19T14:17:53.228Z,27.70
2018-06-19T14:20:20.610Z,27.20
2018-06-19T14:25:15.642Z,27.40
2018-06-19T14:27:42.886Z,28.90
2018-06-19T14:30:10.115Z,29.40
2018-06-19T14:32:37.352Z,30.40
2018-06-19T14:35:04.656Z,30.90
2018-06-19T14:37:31.869Z,31.30
2018-06-19T14:39:59.224Z,30.90
2018-06-19T14:42:26.473Z,29.80
2018-06-19T14:44:53.835Z,28.80
2018-06-19T14:47:21.053Z,28.50
2018-06-19T14:49:48.305Z,28.10
2018-06-19T14:52:15.590Z,27.60
2018-06-19T14:54:42.841Z,28.20
2018-06-19T14:57:10.113Z,29.00
2018-06-19T14:59:37.342Z,29.90
2018-06-19T15:02:05.041Z,29.80
2018-06-19T15:06:59.592Z,30.30
2018-06-19T15:09:26.906Z,30.40
2018-06-19T15:11:54.157Z,29.90
2018-06-19T15:14:21.424Z,29.60
2018-06-19T15:16:48.804Z,30.00
2018-06-19T15:19:16.017Z,29.90
2018-06-19T15:21:43.250Z,30.60
2018-06-19T15:26:37.829Z,31.00
2018-06-19T15:29:05.184Z,31.50
2018-06-19T15:31:32.430Z,31.60
2018-06-19T15:33:59.650Z,31.90
2018-06-19T15:36:26.994Z,32.10
2018-06-19T15:38:54.336Z,31.90
2018-06-19T15:41:21.573Z,31.90
2018-06-19T15:43:48.792Z,32.30
2018-06-19T15:46:16.045Z,32.30
2018-06-19T15:48:44.160Z,31.70
2018-06-19T15:51:11.397Z,31.30
2018-06-19T15:53:38.641Z,31.40
2018-06-19T15:56:06.094Z,31.40
2018-06-19T15:58:33.329Z,32.20
2018-06-19T16:01:00.565Z,32.10
2018-06-19T16:03:27.943Z,31.90
2018-06-19T16:05:55.202Z,31.90
2018-06-19T16:08:22.517Z,32.20
2018-06-19T16:10:49.949Z,31.90
2018-06-19T16:13:17.201Z,31.90
2018-06-19T16:15:44.420Z,30.20
2018-06-19T16:18:12.228Z,29.10
2018-06-19T16:20:39.464Z,29.00
2018-06-19T16:23:07.004Z,29.50
2018-06-19T16:25:34.241Z,29.90
2018-06-19T16:28:01.591Z,30.10
2018-06-19T16:30:28.829Z,29.30
2018-06-19T16:32:56.073Z,29.60
2018-06-19T16:35:23.412Z,29.70
2018-06-19T16:37:50.648Z,28.90
2018-06-19T16:40:17.925Z,28.90
2018-06-19T16:42:45.141Z,29.30
2018-06-19T16:47:39.690Z,30.20
2018-06-19T16:50:06.941Z,29.90
2018-06-19T16:55:02.302Z,29.90
2018-06-19T16:57:29.729Z,29.90
2018-06-19T17:02:24.185Z,29.70
2018-06-19T17:04:51.442Z,29.80
2018-06-19T17:07:18.879Z,29.80
2018-06-19T17:09:46.064Z,29.10
2018-06-19T17:12:13.425Z,29.10
2018-06-19T17:14:40.661Z,28.90
2018-06-19T17:17:08.714Z,28.80
2018-06-19T17:19:35.961Z,28.60
2018-06-19T17:22:03.222Z,28.10
2018-06-19T17:24:30.465Z,27.60
2018-06-19T17:26:57.716Z,27.00
2018-06-19T17:29:24.987Z,26.50
2018-06-19T17:31:52.236Z,26.10
2018-06-19T17:34:19.467Z,25.70
2018-06-19T17:36:46.709Z,25.40
2018-06-19T17:39:13.937Z,25.10
2018-06-19T17:41:41.268Z,24.90
2018-06-19T17:44:08.502Z,24.60
2018-06-19T17:46:35.932Z,24.50
2018-06-19T17:49:03.206Z,24.30
2018-06-19T17:51:30.441Z,24.10
2018-06-19T17:53:57.686Z,24.00
2018-06-19T17:56:25.084Z,23.90
2018-06-19T17:58:52.313Z,23.90
2018-06-19T18:01:19.633Z,23.80
2018-06-19T18:03:46.861Z,23.70
2018-06-19T18:06:14.097Z,23.60
2018-06-19T18:08:41.345Z,23.50
2018-06-19T18:11:08.578Z,23.50
2018-06-19T18:13:35.960Z,23.40
2018-06-19T18:16:03.196Z,23.30
2018-06-19T18:18:30.686Z,23.20
2018-06-19T18:20:57.928Z,23.10
2018-06-19T18:23:25.150Z,23.10
2018-06-19T18:25:52.381Z,23.00
2018-06-19T18:28:19.611Z,23.00
2018-06-19T18:30:46.906Z,22.90
2018-06-19T18:33:14.146Z,22.90
2018-06-19T18:35:41.430Z,22.90
2018-06-19T18:38:08.648Z,22.90
2018-06-19T18:40:35.879Z,22.90
2018-06-19T18:43:03.113Z,22.80
2018-06-19T18:45:30.340Z,22.80
2018-06-19T18:47:57.757Z,22.80
2018-06-19T18:50:24.973Z,22.70
2018-06-19T18:52:52.191Z,22.60
2018-06-19T18:55:19.416Z,22.50
2018-06-19T18:57:46.630Z,22.40
2018-06-19T19:00:14.006Z,22.30
2018-06-19T19:02:41.265Z,22.20
2018-06-19T19:05:08.513Z,22.20
2018-06-19T19:07:35.735Z,22.10
2018-06-19T19:10:08.632Z,22.00
2018-06-19T19:12:35.848Z,21.90
2018-06-19T19:15:09.173Z,21.80
2018-06-19T19:18:43.820Z,21.80
2018-06-19T19:21:11.121Z,21.70
2018-06-19T19:23:38.341Z,21.60
2018-06-19T19:26:05.573Z,21.50
2018-06-19T19:28:38.670Z,21.40
2018-06-19T19:31:06.185Z,21.30
2018-06-19T19:33:33.416Z,21.20
2018-06-19T19:36:00.658Z,21.10
2018-06-19T19:38:33.685Z,20.90
2018-06-19T19:41:00.902Z,20.70
2018-06-19T19:43:28.137Z,20.50
2018-06-19T19:45:55.365Z,20.40
2018-06-19T19:48:28.465Z,20.20
2018-06-19T19:50:55.742Z,20.00
2018-06-19T19:53:22.972Z,19.90
2018-06-19T19:55:55.890Z,19.90
2018-06-19T19:58:28.900Z,19.80
2018-06-19T20:00:56.133Z,19.70
2018-06-19T20:03:23.432Z,19.60
2018-06-19T20:05:50.661Z,19.60
2018-06-19T20:08:18.742Z,19.50
2018-06-19T20:10:46.022Z,19.50
2018-06-19T20:13:13.308Z,19.40
2018-06-19T20:15:40.585Z,19.40
2018-06-19T20:18:07.824Z,19.30
2018-06-19T20:20:35.058Z,19.20
2018-06-19T20:23:02.352Z,19.20
2018-06-19T20:25:29.584Z,19.10
2018-06-19T20:27:56.822Z,19.00
2018-06-19T20:32:51.444Z,18.90
2018-06-19T20:35:18.661Z,18.80
2018-06-19T20:37:45.892Z,18.80
2018-06-19T20:40:13.135Z,18.80
2018-06-19T20:42:40.369Z,18.70
2018-06-19T20:45:07.596Z,18.70
2018-06-19T20:47:34.822Z,18.70
2018-06-19T20:50:02.080Z,18.70
2018-06-19T20:52:29.329Z,18.70
2018-06-19T20:54:56.544Z,18.60
2018-06-19T20:57:23.774Z,18.60
2018-06-19T20:59:51.001Z,18.60
2018-06-19T21:02:18.280Z,18.60
2018-06-19T21:04:45.486Z,18.50
2018-06-19T21:07:12.700Z,18.50
2018-06-19T21:09:39.925Z,18.40
2018-06-19T21:12:07.477Z,18.40
2018-06-19T21:14:34.725Z,18.30
2018-06-19T21:17:01.977Z,18.30
2018-06-19T21:19:29.236Z,18.20
2018-06-19T21:21:56.452Z,18.10
2018-06-19T21:24:23.735Z,18.10
2018-06-19T21:26:50.965Z,18.10
2018-06-19T21:29:18.241Z,18.20
2018-06-19T21:31:45.505Z,18.20
2018-06-19T21:34:12.702Z,18.20
2018-06-19T21:36:39.912Z,18.20
2018-06-19T21:39:08.103Z,18.20
2018-06-19T21:41:35.320Z,18.20
2018-06-19T21:44:02.866Z,18.20
2018-06-19T21:48:57.297Z,18.20
2018-06-19T21:51:24.547Z,18.10
2018-06-19T21:53:51.769Z,18.00
2018-06-19T21:56:18.983Z,18.00
2018-06-19T21:58:46.221Z,18.00
2018-06-19T22:01:13.458Z,17.90
2018-06-19T22:03:40.693Z,17.90
2018-06-19T22:06:07.911Z,17.80
2018-06-19T22:09:06.316Z,17.80
2018-06-19T22:11:33.666Z,17.70
2018-06-19T22:14:00.884Z,17.70
2018-06-19T22:16:28.121Z,17.70
2018-06-19T22:18:55.394Z,17.60
2018-06-19T22:21:22.623Z,17.50
2018-06-19T22:23:49.836Z,17.50
2018-06-19T22:26:17.064Z,17.50
2018-06-19T22:28:44.280Z,17.40
2018-06-19T22:31:11.497Z,17.40
2018-06-19T22:33:38.765Z,17.40
2018-06-19T22:36:05.997Z,17.40
2018-06-19T22:38:33.306Z,17.40
2018-06-19T22:41:00.469Z,17.40
2018-06-19T22:43:27.701Z,17.40
2018-06-19T22:45:54.952Z,17.40
2018-06-19T22:48:22.183Z,17.30
2018-06-19T22:50:49.413Z,17.20
2018-06-19T22:53:16.756Z,17.10
2018-06-19T22:55:43.968Z,17.00
2018-06-19T22:58:11.176Z,17.00
2018-06-19T23:00:38.393Z,16.90
2018-06-19T23:03:05.704Z,16.90
2018-06-19T23:05:34.212Z,16.90
2018-06-19T23:08:01.444Z,16.80
2018-06-19T23:10:29.253Z,16.80
2018-06-19T23:12:56.922Z,16.70
2018-06-19T23:15:24.495Z,16.80
2018-06-19T23:17:51.855Z,16.80
2018-06-19T23:20:19.097Z,16.80
2018-06-19T23:22:47.708Z,16.90
2018-06-19T23:25:15.388Z,16.90
2018-06-19T23:27:42.629Z,16.90
2018-06-19T23:30:10.146Z,16.90
2018-06-19T23:32:37.360Z,16.80
2018-06-19T23:35:04.581Z,16.90
2018-06-19T23:37:31.798Z,16.80
2018-06-19T23:39:59.028Z,16.80
2018-06-19T23:42:26.240Z,16.80
2018-06-19T23:44:54.388Z,16.70
2018-06-19T23:47:21.617Z,16.70
2018-06-19T23:49:48.844Z,16.70
2018-06-19T23:52:16.061Z,16.70
2018-06-19T23:54:43.270Z,16.70
2018-06-19T23:57:10.493Z,16.70
2018-06-19T23:59:37.706Z,16.70
